Time;durP1;ratioP1;P1;durP2;ratioP2;P2;SDS_P1;SDS_P2;PMS_P1;PMS_P2;Temp;Humidity;BMP_temperature;BMP_pressure;BME280_temperature;BME280_humidity;BME280_pressure;Samples;Min_cycle;Max_cycle;Signal;HPM_P1;HPM_P2
2021/04/29 00:00:13;;;;;;;15.48;10.57;;;10.90;99.90;;;;;;5096635;28;20692;-70
2021/04/29 00:02:38;;;;;;;14.40;8.82;;;10.80;99.90;;;;;;5096840;28;20199;-69
2021/04/29 00:05:07;;;;;;;12.43;10.37;;;10.90;99.90;;;;;;5096501;28;20180;-68
2021/04/29 00:07:33;;;;;;;12.73;9.45;;;10.90;99.90;;;;;;5096807;28;20604;-67
2021/04/29 00:09:59;;;;;;;12.43;9.10;;;10.80;99.90;;;;;;5096398;28;20169;-68
2021/04/29 00:12:24;;;;;;;13.13;8.77;;;10.80;99.90;;;;;;5096589;28;20216;-68
2021/04/29 00:14:50;;;;;;;17.73;10.90;;;10.80;99.90;;;;;;5096274;28;20191;-68
2021/04/29 00:17:15;;;;;;;13.70;9.77;;;10.70;99.90;;;;;;5096644;28;20251;-69
2021/04/29 00:19:41;;;;;;;15.50;9.50;;;10.70;99.90;;;;;;5094946;28;20184;-68
2021/04/29 00:22:06;;;;;;;14.83;9.27;;;10.60;99.90;;;;;;5095009;28;20179;-68
2021/04/29 00:24:32;;;;;;;12.43;7.80;;;10.80;99.90;;;;;;5094807;28;20241;-67
2021/04/29 00:26:58;;;;;;;12.10;7.50;;;10.80;99.90;;;;;;5094896;28;20172;-68
2021/04/29 00:29:23;;;;;;;10.67;7.00;;;10.70;99.90;;;;;;5096024;28;20192;-69
2021/04/29 00:31:49;;;;;;;13.17;8.67;;;10.70;99.90;;;;;;5096099;28;20302;-68
2021/04/29 00:34:14;;;;;;;11.27;8.40;;;10.70;99.90;;;;;;5094634;28;20658;-69
2021/04/29 00:36:40;;;;;;;12.27;8.47;;;10.80;99.90;;;;;;5094771;28;20176;-67
2021/04/29 00:39:06;;;;;;;11.80;6.50;;;10.70;99.90;;;;;;5093893;28;20199;-68
2021/04/29 00:41:31;;;;;;;13.60;7.00;;;10.70;99.90;;;;;;5095425;28;20176;-68
2021/04/29 00:43:57;;;;;;;13.00;7.27;;;10.60;99.90;;;;;;5095636;28;20192;-69
2021/04/29 00:46:23;;;;;;;10.90;7.53;;;10.50;99.90;;;;;;5095612;28;20602;-68
2021/04/29 00:48:48;;;;;;;11.63;7.90;;;10.60;99.90;;;;;;5094309;28;20196;-69
2021/04/29 00:51:14;;;;;;;16.03;7.53;;;10.60;99.90;;;;;;5094304;28;20661;-68
2021/04/29 00:53:44;;;;;;;10.10;6.55;;;10.70;99.90;;;;;;5094228;28;20303;-68
2021/04/29 00:56:10;;;;;;;10.77;6.75;;;10.60;99.90;;;;;;5095546;28;20317;-68
2021/04/29 00:58:37;;;;;;;12.05;8.07;;;10.60;99.90;;;;;;5095415;28;20308;-69
2021/04/29 01:01:04;;;;;;;11.27;6.75;;;10.60;99.90;;;;;;5095336;28;20516;-67
2021/04/29 01:03:39;;;;;;;12.93;7.95;;;10.70;99.90;;;;;;5095386;28;20653;-67
2021/04/29 01:06:19;;;;;;;14.00;8.77;;;10.70;99.90;;;;;;5094095;28;20290;-68
2021/04/29 01:08:57;;;;;;;10.63;6.95;;;10.70;99.90;;;;;;5095300;28;20228;-67
2021/04/29 01:11:27;;;;;;;12.35;7.45;;;10.70;99.90;;;;;;5095230;28;20220;-67
2021/04/29 01:13:55;;;;;;;9.82;6.55;;;10.80;99.90;;;;;;5095119;28;20196;-68
2021/04/29 01:16:23;;;;;;;12.68;7.82;;;10.80;99.90;;;;;;5093744;28;20187;-68
2021/04/29 01:18:50;;;;;;;11.02;7.05;;;10.80;99.90;;;;;;5095021;28;20192;-68
2021/04/29 01:21:17;;;;;;;10.32;6.95;;;10.80;99.90;;;;;;5095201;28;20168;-68
2021/04/29 01:24:03;;;;;;;13.20;8.43;;;10.80;99.90;;;;;;5094881;28;20204;-68
2021/04/29 01:26:32;;;;;;;10.35;5.55;;;10.80;99.90;;;;;;5093786;28;20186;-68
2021/04/29 01:29:08;;;;;;;12.80;7.85;;;10.60;99.90;;;;;;5094748;28;20193;-69
2021/04/29 01:31:37;;;;;;;11.98;7.57;;;10.90;99.90;;;;;;5094926;28;20220;-68
2021/04/29 01:34:04;;;;;;;10.00;6.18;;;10.70;99.90;;;;;;5093489;28;20201;-68
2021/04/29 01:36:31;;;;;;;12.32;7.90;;;10.80;99.90;;;;;;5093541;28;20206;-68
2021/04/29 01:38:58;;;;;;;12.38;6.28;;;10.80;99.90;;;;;;5094587;28;20196;-69
2021/04/29 01:41:24;;;;;;;9.75;7.78;;;10.90;99.90;;;;;;5094800;28;20637;-68
2021/04/29 01:43:50;;;;;;;10.57;6.32;;;11.00;99.90;;;;;;5094599;28;20193;-68
2021/04/29 01:46:17;;;;;;;10.67;7.13;;;10.70;99.90;;;;;;5093075;28;20184;-68
2021/04/29 01:48:43;;;;;;;13.60;7.00;;;10.70;99.90;;;;;;5094520;28;20417;-68
2021/04/29 01:51:09;;;;;;;9.00;6.43;;;10.80;99.90;;;;;;5092766;28;20242;-68
2021/04/29 01:53:35;;;;;;;12.20;7.90;;;10.80;99.90;;;;;;5093053;28;20200;-68
2021/04/29 01:56:01;;;;;;;10.80;7.50;;;10.80;99.90;;;;;;5094500;28;20522;-68
2021/04/29 01:58:27;;;;;;;10.83;7.23;;;10.80;99.90;;;;;;5094417;28;20322;-67
2021/04/29 02:00:52;;;;;;;11.30;6.80;;;10.80;99.90;;;;;;5092906;28;20425;-68
2021/04/29 02:03:21;;;;;;;11.13;6.23;;;10.80;99.90;;;;;;5094229;28;20193;-68
2021/04/29 02:05:47;;;;;;;11.88;7.63;;;10.80;99.90;;;;;;5094183;28;20207;-67
2021/04/29 02:08:12;;;;;;;11.40;7.57;;;10.80;99.90;;;;;;5094166;28;20192;-68
2021/04/29 02:10:38;;;;;;;11.07;7.30;;;10.90;99.90;;;;;;5094019;28;20247;-68
2021/04/29 02:13:08;;;;;;;12.57;7.70;;;10.80;99.90;;;;;;5092823;28;20235;-68
2021/04/29 02:15:39;;;;;;;10.38;8.05;;;10.90;99.90;;;;;;5092741;28;20176;-69
2021/04/29 02:18:09;;;;;;;11.57;6.75;;;10.80;99.90;;;;;;5094071;28;20192;-68
2021/04/29 02:20:38;;;;;;;11.77;7.47;;;10.90;99.90;;;;;;5093873;28;20173;-68
2021/04/29 02:23:08;;;;;;;12.77;7.45;;;10.80;99.90;;;;;;5093996;28;20196;-69
2021/04/29 02:25:34;;;;;;;9.32;5.95;;;10.90;99.90;;;;;;5093977;28;20164;-68
2021/04/29 02:27:59;;;;;;;10.23;6.80;;;10.80;99.90;;;;;;5093927;28;20665;-68
2021/04/29 02:30:26;;;;;;;9.00;5.30;;;10.70;99.90;;;;;;5093903;28;20444;-67
2021/04/29 02:32:53;;;;;;;10.73;6.78;;;10.80;99.90;;;;;;5094251;28;20345;-68
2021/04/29 02:35:19;;;;;;;8.95;6.80;;;10.70;99.90;;;;;;5092553;28;20215;-69
2021/04/29 02:37:47;;;;;;;12.55;8.48;;;10.70;99.90;;;;;;5093562;28;20606;-69
2021/04/29 02:40:14;;;;;;;9.70;6.80;;;10.70;99.90;;;;;;5093747;28;20177;-69
2021/04/29 02:42:41;;;;;;;10.38;7.13;;;10.70;99.90;;;;;;5094124;28;20210;-68
2021/04/29 02:45:10;;;;;;;12.70;7.28;;;10.70;99.90;;;;;;5093769;28;20714;-68
2021/04/29 02:47:39;;;;;;;10.82;6.85;;;10.50;99.90;;;;;;5093488;28;20234;-67
2021/04/29 02:50:09;;;;;;;7.85;6.00;;;10.50;99.90;;;;;;5093711;28;20172;-68
2021/04/29 02:52:34;;;;;;;8.57;6.68;;;10.60;99.90;;;;;;5093395;28;20212;-68
2021/04/29 02:55:00;;;;;;;9.13;4.90;;;10.50;99.90;;;;;;5093659;28;20187;-68
2021/04/29 02:57:26;;;;;;;7.97;6.00;;;10.40;99.90;;;;;;5093957;28;20172;-68
2021/04/29 02:59:51;;;;;;;9.10;6.07;;;10.40;99.90;;;;;;5093572;28;20172;-68
2021/04/29 03:02:17;;;;;;;8.00;6.20;;;10.40;99.90;;;;;;5093872;28;20254;-69
2021/04/29 03:04:43;;;;;;;10.10;6.60;;;10.40;99.90;;;;;;5097265;28;20211;-68
2021/04/29 03:07:09;;;;;;;8.35;5.70;;;10.50;99.90;;;;;;5098028;28;20176;-68
2021/04/29 03:09:35;;;;;;;11.10;6.67;;;10.50;99.90;;;;;;5097499;28;20551;-67
2021/04/29 03:12:01;;;;;;;12.27;6.40;;;10.60;99.90;;;;;;5097685;28;20260;-68
2021/04/29 03:14:26;;;;;;;9.60;6.80;;;10.50;99.90;;;;;;5096221;28;20433;-67
2021/04/29 03:16:52;;;;;;;10.17;5.67;;;10.40;99.90;;;;;;5097706;28;20560;-68
2021/04/29 03:19:18;;;;;;;8.80;6.23;;;10.50;99.90;;;;;;5096106;28;20197;-68
2021/04/29 03:21:43;;;;;;;9.63;6.47;;;10.50;99.90;;;;;;5097509;28;20184;-68
2021/04/29 03:24:09;;;;;;;7.63;5.97;;;10.50;99.90;;;;;;5097249;28;20249;-68
2021/04/29 03:26:36;;;;;;;8.77;6.00;;;10.50;99.90;;;;;;5097408;28;20179;-69
2021/04/29 03:29:02;;;;;;;9.43;6.20;;;10.50;99.90;;;;;;5097277;28;20204;-67
2021/04/29 03:31:27;;;;;;;9.73;5.80;;;10.50;99.90;;;;;;5097037;28;20258;-68
2021/04/29 03:33:53;;;;;;;11.17;6.70;;;10.50;99.90;;;;;;5096942;28;20199;-68
2021/04/29 03:36:19;;;;;;;9.77;6.30;;;10.40;99.90;;;;;;5097237;28;20177;-67
2021/04/29 03:38:44;;;;;;;8.60;6.07;;;10.40;99.90;;;;;;5095698;28;21032;-69
2021/04/29 03:41:10;;;;;;;9.57;6.17;;;10.50;99.90;;;;;;5097152;28;20252;-69
2021/04/29 03:43:36;;;;;;;10.70;7.57;;;10.60;99.90;;;;;;5096897;28;20193;-68
2021/04/29 03:46:01;;;;;;;8.60;6.40;;;10.50;99.90;;;;;;5094452;28;20177;-67
2021/04/29 03:48:27;;;;;;;9.37;6.50;;;10.50;99.90;;;;;;5094694;28;20307;-68
2021/04/29 03:50:52;;;;;;;8.87;6.20;;;10.50;99.90;;;;;;5093959;28;20270;-68
2021/04/29 03:53:18;;;;;;;10.13;6.07;;;10.60;99.90;;;;;;5096185;28;20741;-69
2021/04/29 03:55:43;;;;;;;10.40;6.30;;;10.50;99.90;;;;;;5096693;28;20180;-69
2021/04/29 03:58:09;;;;;;;8.60;6.17;;;10.70;99.90;;;;;;5096540;28;20204;-67
2021/04/29 04:00:35;;;;;;;11.70;5.87;;;10.70;99.90;;;;;;5095190;28;20192;-68
2021/04/29 04:03:00;;;;;;;13.77;6.93;;;10.80;99.90;;;;;;5096480;28;20606;-68
2021/04/29 04:05:26;;;;;;;8.77;5.27;;;10.80;99.90;;;;;;5096564;28;20165;-68
2021/04/29 04:07:51;;;;;;;10.43;7.23;;;10.80;99.90;;;;;;5095311;28;20287;-68
2021/04/29 04:10:17;;;;;;;10.70;7.07;;;10.80;99.90;;;;;;5095269;28;20181;-68
2021/04/29 04:12:42;;;;;;;12.67;7.87;;;10.80;99.90;;;;;;5096672;28;20243;-69
2021/04/29 04:15:08;;;;;;;10.50;6.30;;;10.90;99.90;;;;;;5095108;28;20188;-69
2021/04/29 04:17:34;;;;;;;13.60;7.87;;;11.00;99.90;;;;;;5096724;28;20177;-68
2021/04/29 04:20:00;;;;;;;12.27;6.45;;;10.90;99.90;;;;;;5095012;28;20420;-68
2021/04/29 04:22:26;;;;;;;11.00;6.90;;;10.90;99.90;;;;;;5096060;28;20184;-68
2021/04/29 04:24:51;;;;;;;12.97;6.90;;;10.90;99.90;;;;;;5096163;28;20180;-68
2021/04/29 04:27:17;;;;;;;13.40;7.43;;;10.80;99.90;;;;;;5096385;28;20176;-69
2021/04/29 04:29:42;;;;;;;11.80;8.17;;;10.90;99.90;;;;;;5095951;28;20191;-68
2021/04/29 04:32:08;;;;;;;10.53;6.37;;;10.70;99.90;;;;;;5094733;28;20227;-68
2021/04/29 04:34:33;;;;;;;11.70;7.53;;;10.70;99.90;;;;;;5095902;28;20279;-69
2021/04/29 04:36:59;;;;;;;12.47;7.20;;;10.70;99.90;;;;;;5094658;28;20202;-68
2021/04/29 04:39:25;;;;;;;10.67;7.20;;;10.80;99.90;;;;;;5095854;28;20563;-68
2021/04/29 04:41:51;;;;;;;10.87;6.20;;;10.80;99.90;;;;;;5096004;28;20164;-67
2021/04/29 04:44:16;;;;;;;11.50;7.40;;;10.80;99.90;;;;;;5094202;28;20433;-69
2021/04/29 04:46:42;;;;;;;13.40;8.70;;;10.80;99.90;;;;;;5088572;28;20305;-67
2021/04/29 04:49:07;;;;;;;12.27;8.13;;;10.90;99.90;;;;;;5094840;28;20208;-67
2021/04/29 04:51:33;;;;;;;12.40;7.70;;;10.80;99.90;;;;;;5093534;28;20216;-68
2021/04/29 04:53:59;;;;;;;14.53;9.27;;;10.70;99.90;;;;;;5092292;28;20211;-68
2021/04/29 04:56:26;;;;;;;15.38;9.40;;;10.70;99.90;;;;;;5093089;28;20181;-69
2021/04/29 04:58:52;;;;;;;18.25;9.80;;;10.90;99.90;;;;;;5093750;28;20200;-68
2021/04/29 05:01:17;;;;;;;15.00;7.53;;;10.70;99.90;;;;;;5094071;28;20184;-68
2021/04/29 05:03:43;;;;;;;18.57;8.97;;;10.60;99.90;;;;;;5092124;28;20230;-68
2021/04/29 05:06:08;;;;;;;17.80;11.07;;;10.70;99.90;;;;;;5091698;28;20182;-67
2021/04/29 05:08:34;;;;;;;17.23;9.50;;;10.80;99.90;;;;;;5094339;28;20204;-69
2021/04/29 05:11:00;;;;;;;21.30;10.47;;;11.00;99.90;;;;;;5093135;28;20215;-69
2021/04/29 05:13:25;;;;;;;26.10;11.70;;;10.90;99.90;;;;;;5093692;28;20208;-67
2021/04/29 05:15:51;;;;;;;16.93;10.50;;;10.70;99.90;;;;;;5093858;28;20539;-68
2021/04/29 05:18:16;;;;;;;26.03;14.60;;;10.80;99.90;;;;;;5093328;28;20212;-68
2021/04/29 05:20:44;;;;;;;28.97;12.43;;;10.80;99.90;;;;;;5094891;28;20660;-68
2021/04/29 05:23:10;;;;;;;34.22;13.75;;;10.80;99.90;;;;;;5092252;28;20677;-69
2021/04/29 05:25:36;;;;;;;27.83;14.07;;;10.70;99.90;;;;;;5087011;28;20173;-69
2021/04/29 05:28:05;;;;;;;26.83;11.20;;;10.70;99.90;;;;;;5093521;28;20299;-68
2021/04/29 05:30:30;;;;;;;26.65;13.77;;;10.80;99.90;;;;;;5093270;28;20638;-68
2021/04/29 05:32:56;;;;;;;30.40;13.33;;;10.70;99.90;;;;;;5093289;28;20281;-68
2021/04/29 05:35:22;;;;;;;26.03;12.90;;;10.80;99.90;;;;;;5093076;28;20574;-68
2021/04/29 05:37:47;;;;;;;26.97;15.07;;;10.80;99.90;;;;;;5092031;28;20677;-68
2021/04/29 05:40:13;;;;;;;27.70;13.20;;;10.90;99.90;;;;;;5093719;28;20185;-69
2021/04/29 05:42:42;;;;;;;26.70;14.40;;;10.90;99.90;;;;;;5094454;28;20204;-69
2021/04/29 05:45:09;;;;;;;23.60;13.02;;;11.00;99.90;;;;;;5093347;28;20211;-68
2021/04/29 05:47:35;;;;;;;30.77;16.17;;;10.90;99.90;;;;;;5090025;28;20637;-68
2021/04/29 05:50:02;;;;;;;28.20;15.90;;;11.00;99.90;;;;;;5093014;28;20184;-69
2021/04/29 05:52:28;;;;;;;32.00;15.20;;;11.00;99.90;;;;;;5094244;28;20272;-68
2021/04/29 05:54:53;;;;;;;25.10;12.80;;;11.10;99.90;;;;;;5092228;28;20615;-68
2021/04/29 05:57:19;;;;;;;31.03;12.43;;;10.80;99.90;;;;;;5093698;28;20192;-68
2021/04/29 05:59:44;;;;;;;25.60;12.20;;;11.10;99.90;;;;;;5093332;28;20205;-68
2021/04/29 06:02:10;;;;;;;33.60;15.77;;;11.10;99.90;;;;;;5093364;28;20181;-68
2021/04/29 06:04:36;;;;;;;30.00;16.97;;;11.20;99.90;;;;;;5092143;28;20200;-68
2021/04/29 06:07:01;;;;;;;23.53;12.10;;;11.30;99.90;;;;;;5083357;28;20653;-68
2021/04/29 06:09:27;;;;;;;27.77;14.00;;;11.40;99.90;;;;;;5092309;28;20277;-68
2021/04/29 06:11:52;;;;;;;24.03;13.97;;;11.40;99.90;;;;;;5091568;28;20219;-68
2021/04/29 06:14:18;;;;;;;34.27;15.03;;;11.40;99.90;;;;;;5089876;28;20250;-68
2021/04/29 06:16:43;;;;;;;24.00;11.60;;;11.40;99.90;;;;;;5089239;28;20190;-67
2021/04/29 06:19:10;;;;;;;23.50;14.53;;;11.40;99.90;;;;;;5086027;28;20211;-70
2021/04/29 06:21:36;;;;;;;24.67;11.93;;;11.50;99.90;;;;;;5086545;28;20184;-69
2021/04/29 06:24:02;;;;;;;22.63;13.13;;;11.50;99.90;;;;;;5089254;28;20650;-69
2021/04/29 06:26:27;;;;;;;24.13;13.30;;;11.60;99.90;;;;;;5091173;28;20180;-70
2021/04/29 06:28:53;;;;;;;23.13;11.60;;;11.80;99.90;;;;;;5091406;28;20227;-68
2021/04/29 06:31:19;;;;;;;21.33;12.60;;;11.70;99.90;;;;;;5086888;28;20266;-68
2021/04/29 06:33:44;;;;;;;18.77;10.07;;;11.90;99.90;;;;;;5089292;28;20687;-69
2021/04/29 06:36:10;;;;;;;19.07;11.67;;;11.90;99.90;;;;;;5093611;28;20191;-69
2021/04/29 06:38:36;;;;;;;17.37;11.37;;;12.10;99.90;;;;;;5093603;28;20657;-68
2021/04/29 06:41:03;;;;;;;18.92;10.57;;;12.10;99.90;;;;;;5093844;28;20180;-70
2021/04/29 06:43:29;;;;;;;15.57;9.43;;;12.30;99.90;;;;;;5092001;28;20204;-70
2021/04/29 06:45:54;;;;;;;16.33;10.90;;;12.30;99.90;;;;;;5091620;28;20184;-68
2021/04/29 06:48:20;;;;;;;14.73;9.83;;;12.40;99.90;;;;;;5090609;28;20491;-70
2021/04/29 06:50:46;;;;;;;12.57;8.67;;;12.60;99.90;;;;;;5089741;28;20195;-69
2021/04/29 06:53:12;;;;;;;16.13;9.50;;;12.60;99.90;;;;;;5090886;28;20291;-69
2021/04/29 06:55:37;;;;;;;14.73;9.00;;;12.90;99.90;;;;;;5090012;28;20801;-69
2021/04/29 06:58:03;;;;;;;15.93;9.40;;;12.90;99.90;;;;;;5091196;28;20480;-69
2021/04/29 07:00:29;;;;;;;13.60;8.93;;;12.90;99.90;;;;;;5092384;28;20224;-70
2021/04/29 07:02:59;;;;;;;14.67;9.50;;;12.90;99.90;;;;;;5093843;28;20203;-69
2021/04/29 07:05:25;;;;;;;12.77;9.20;;;13.00;99.90;;;;;;5093199;28;20181;-69
2021/04/29 07:07:51;;;;;;;15.97;9.77;;;12.70;99.90;;;;;;5092341;28;20452;-69
2021/04/29 07:10:17;;;;;;;13.37;8.10;;;12.80;99.90;;;;;;5092533;28;20538;-70
2021/04/29 07:12:43;;;;;;;14.17;8.77;;;13.00;99.90;;;;;;5089369;28;20563;-69
2021/04/29 07:15:09;;;;;;;13.83;9.20;;;12.90;99.90;;;;;;5092320;28;20409;-70
2021/04/29 07:17:35;;;;;;;15.70;9.57;;;13.10;99.90;;;;;;5093632;28;20165;-69
2021/04/29 07:20:00;;;;;;;15.03;9.63;;;13.00;99.90;;;;;;5092804;28;20403;-69
2021/04/29 07:22:26;;;;;;;13.50;9.30;;;13.10;99.90;;;;;;5092613;28;20610;-69
2021/04/29 07:24:51;;;;;;;16.67;11.10;;;13.00;99.90;;;;;;5091725;28;20184;-70
2021/04/29 07:27:17;;;;;;;15.87;11.13;;;13.10;99.90;;;;;;5091160;28;20263;-70
2021/04/29 07:29:43;;;;;;;14.30;8.40;;;13.00;99.90;;;;;;5091734;28;20185;-70
2021/04/29 07:32:08;;;;;;;16.90;9.60;;;13.10;99.90;;;;;;5088046;28;20213;-69
2021/04/29 07:34:34;;;;;;;18.30;9.93;;;13.00;99.90;;;;;;5081066;28;20210;-69
2021/04/29 07:37:00;;;;;;;19.07;9.37;;;13.20;99.90;;;;;;5093201;28;20188;-70
2021/04/29 07:39:26;;;;;;;19.20;11.20;;;13.50;99.90;;;;;;5090371;28;20433;-69
2021/04/29 07:41:52;;;;;;;21.03;10.73;;;13.60;99.90;;;;;;5079138;28;20783;-68
2021/04/29 07:44:18;;;;;;;19.37;12.43;;;13.70;99.90;;;;;;5084975;28;20553;-70
2021/04/29 07:46:44;;;;;;;17.30;10.47;;;13.70;99.90;;;;;;5085772;28;20480;-69
2021/04/29 07:49:09;;;;;;;17.13;11.80;;;13.70;99.90;;;;;;5074347;28;20224;-69
2021/04/29 07:51:35;;;;;;;17.77;10.20;;;14.00;99.90;;;;;;5074435;28;20213;-68
2021/04/29 07:54:04;;;;;;;15.07;9.70;;;13.90;99.90;;;;;;5092046;28;20207;-69
2021/04/29 07:56:30;;;;;;;15.40;10.10;;;14.00;99.90;;;;;;5091305;28;20172;-68
2021/04/29 07:58:55;;;;;;;17.17;10.67;;;14.30;99.90;;;;;;5093015;28;20798;-68
2021/04/29 08:01:21;;;;;;;15.30;9.57;;;14.20;99.90;;;;;;5093729;28;20416;-68
2021/04/29 08:03:47;;;;;;;15.00;10.17;;;14.20;99.90;;;;;;5077616;28;20201;-70
2021/04/29 08:06:12;;;;;;;17.53;10.30;;;14.30;99.90;;;;;;5083080;28;20275;-70
2021/04/29 08:08:38;;;;;;;15.50;8.97;;;14.30;99.90;;;;;;5085651;28;20275;-69
2021/04/29 08:11:04;;;;;;;16.03;10.03;;;14.20;99.90;;;;;;5088903;28;20211;-68
2021/04/29 08:13:30;;;;;;;19.07;11.70;;;14.10;99.90;;;;;;5091929;28;20223;-68
2021/04/29 08:15:56;;;;;;;18.83;10.63;;;14.30;99.90;;;;;;5093027;28;20618;-68
2021/04/29 08:18:21;;;;;;;19.23;10.23;;;14.30;99.90;;;;;;5080857;28;20462;-69
2021/04/29 08:20:47;;;;;;;20.40;11.47;;;14.50;99.90;;;;;;5090925;28;20435;-70
2021/04/29 08:23:13;;;;;;;21.10;13.03;;;14.70;99.90;;;;;;5090532;28;20210;-69
2021/04/29 08:25:38;;;;;;;13.80;9.67;;;14.80;99.90;;;;;;5091745;28;20177;-68
2021/04/29 08:28:04;;;;;;;14.27;9.90;;;15.00;99.90;;;;;;5079629;28;20292;-68
2021/04/29 08:30:30;;;;;;;19.80;10.83;;;15.10;99.90;;;;;;5083337;28;20246;-69
2021/04/29 08:32:57;;;;;;;20.37;11.23;;;15.20;99.90;;;;;;5084634;28;20495;-69
2021/04/29 08:35:24;;;;;;;22.50;14.00;;;15.20;99.90;;;;;;5105933;28;20441;-70
2021/04/29 08:37:51;;;;;;;15.30;10.30;;;15.40;99.90;;;;;;5086361;28;20493;-68
2021/04/29 08:40:18;;;;;;;19.60;11.93;;;15.60;99.90;;;;;;5088878;28;20478;-69
2021/04/29 08:42:44;;;;;;;15.90;11.80;;;15.60;99.90;;;;;;5087435;28;20551;-69
2021/04/29 08:45:11;;;;;;;18.70;12.20;;;15.90;99.90;;;;;;5090129;28;21021;-70
2021/04/29 08:47:38;;;;;;;21.17;12.37;;;15.80;99.90;;;;;;5082550;28;20481;-69
2021/04/29 08:50:06;;;;;;;15.27;10.87;;;15.80;99.90;;;;;;5090516;28;20474;-69
2021/04/29 08:52:32;;;;;;;17.03;10.50;;;16.00;99.90;;;;;;5080589;28;20465;-68
2021/04/29 08:54:57;;;;;;;19.27;12.40;;;16.30;99.90;;;;;;5087935;28;20417;-70
2021/04/29 08:57:25;;;;;;;20.33;9.93;;;16.40;99.90;;;;;;5092240;28;20493;-69
2021/04/29 08:59:52;;;;;;;19.67;12.33;;;16.60;99.90;;;;;;5090035;28;20191;-70
2021/04/29 09:02:32;;;;;;;19.67;12.17;;;16.70;99.90;;;;;;5092432;28;20428;-69
2021/04/29 09:05:10;;;;;;;16.27;10.67;;;17.00;99.90;;;;;;5091603;28;20788;-68
2021/04/29 09:07:36;;;;;;;15.63;8.90;;;17.40;99.90;;;;;;5090981;28;20453;-67
2021/04/29 09:10:04;;;;;;;13.67;9.20;;;16.90;99.90;;;;;;5090358;28;20441;-68
2021/04/29 09:12:44;;;;;;;13.83;8.83;;;17.30;99.90;;;;;;5085209;28;20464;-68
2021/04/29 09:15:21;;;;;;;12.27;8.40;;;17.50;99.90;;;;;;5090140;28;20835;-70
2021/04/29 09:18:02;;;;;;;14.83;8.60;;;17.40;99.90;;;;;;5088169;28;20509;-69
2021/04/29 09:20:27;;;;;;;17.23;10.00;;;17.60;99.90;;;;;;5087907;28;21077;-68
2021/04/29 09:23:03;;;;;;;12.67;8.70;;;17.70;99.90;;;;;;5082572;28;20575;-68
2021/04/29 09:25:30;;;;;;;12.37;8.63;;;17.60;99.90;;;;;;5091100;28;20191;-68
2021/04/29 09:27:56;;;;;;;12.03;8.47;;;17.50;99.90;;;;;;5087935;28;20486;-68
2021/04/29 09:30:27;;;;;;;11.90;8.83;;;17.80;99.90;;;;;;5090760;28;20869;-69
2021/04/29 09:32:58;;;;;;;9.60;7.60;;;18.00;99.90;;;;;;5088527;28;20995;-69
2021/04/29 09:35:24;;;;;;;11.37;7.57;;;18.20;99.90;;;;;;5101946;28;20423;-68
2021/04/29 09:37:50;;;;;;;10.23;7.17;;;17.90;99.90;;;;;;5084915;28;20505;-69
2021/04/29 09:40:27;;;;;;;10.60;7.07;;;17.90;99.90;;;;;;5082362;28;20184;-69
2021/04/29 09:42:54;;;;;;;11.47;7.20;;;18.00;99.90;;;;;;5086569;28;20690;-68
2021/04/29 09:45:30;;;;;;;9.50;7.20;;;18.20;99.90;;;;;;5085162;28;21076;-69
2021/04/29 09:47:59;;;;;;;9.57;7.37;;;18.30;99.90;;;;;;5078434;28;20485;-68
2021/04/29 09:50:28;;;;;;;9.70;7.40;;;18.50;99.90;;;;;;5083291;28;20442;-69
2021/04/29 09:53:02;;;;;;;8.33;7.10;;;18.60;99.90;;;;;;5088737;28;20474;-68
2021/04/29 09:55:30;;;;;;;11.53;9.10;;;18.90;99.90;;;;;;5086450;28;20434;-68
2021/04/29 09:58:14;;;;;;;9.93;7.30;;;19.10;99.90;;;;;;5080037;28;20570;-68
2021/04/29 10:00:41;;;;;;;10.60;7.50;;;19.30;99.90;;;;;;5087675;28;20411;-67
2021/04/29 10:03:07;;;;;;;10.60;7.40;;;18.80;99.90;;;;;;5078410;28;20460;-68
2021/04/29 10:05:38;;;;;;;11.63;8.70;;;18.80;99.90;;;;;;5077857;28;20427;-69
2021/04/29 10:08:06;;;;;;;11.93;6.93;;;19.10;99.90;;;;;;5072221;28;20448;-68
2021/04/29 10:10:33;;;;;;;9.97;7.27;;;19.10;99.90;;;;;;5100144;28;20960;-68
2021/04/29 10:13:02;;;;;;;9.60;7.17;;;19.60;99.90;;;;;;5087776;28;20811;-70
2021/04/29 10:15:31;;;;;;;13.07;7.87;;;19.40;99.90;;;;;;5084290;28;20532;-68
2021/04/29 10:17:58;;;;;;;9.43;6.50;;;19.20;99.90;;;;;;5078946;28;20460;-70
2021/04/29 10:20:23;;;;;;;12.30;7.90;;;19.60;99.90;;;;;;5091371;28;20942;-69
2021/04/29 10:22:49;;;;;;;7.73;6.60;;;20.00;99.90;;;;;;5085723;28;20460;-70
2021/04/29 10:25:33;;;;;;;9.93;6.90;;;20.20;99.90;;;;;;5089656;28;20645;-72
2021/04/29 10:28:00;;;;;;;8.90;7.70;;;20.50;99.90;;;;;;5091159;28;20908;-69
2021/04/29 10:30:37;;;;;;;10.30;7.30;;;20.20;99.90;;;;;;5089840;28;20420;-70
2021/04/29 10:33:17;;;;;;;6.90;6.07;;;20.40;99.90;;;;;;5078647;28;20520;-67
2021/04/29 10:35:58;;;;;;;6.80;5.57;;;20.40;99.90;;;;;;5088618;28;20504;-69
2021/04/29 10:38:33;;;;;;;7.40;5.60;;;20.10;99.90;;;;;;5087791;28;20547;-68
2021/04/29 10:41:15;;;;;;;8.37;6.60;;;19.80;99.90;;;;;;5088016;28;20431;-68
2021/04/29 10:43:41;;;;;;;8.77;6.80;;;20.30;99.90;;;;;;5084712;28;20471;-70
2021/04/29 10:46:07;;;;;;;8.80;5.17;;;20.20;99.90;;;;;;5091828;28;20417;-67
2021/04/29 10:48:35;;;;;;;6.90;5.20;;;19.80;99.90;;;;;;5090736;28;20984;-67
2021/04/29 10:51:10;;;;;;;6.70;5.30;;;20.40;99.90;;;;;;5081234;28;20885;-68
2021/04/29 10:53:37;;;;;;;8.17;5.97;;;20.70;99.90;;;;;;5085505;28;20448;-71
2021/04/29 10:56:21;;;;;;;7.43;5.30;;;21.10;99.90;;;;;;5080428;28;20432;-68
2021/04/29 10:58:47;;;;;;;6.80;5.40;;;21.10;99.90;;;;;;5089438;28;20441;-69
2021/04/29 11:01:23;;;;;;;6.73;5.23;;;20.90;99.90;;;;;;5086044;28;20428;-70
2021/04/29 11:03:50;;;;;;;5.70;4.50;;;21.10;99.90;;;;;;5103668;28;20459;-69
2021/04/29 11:06:22;;;;;;;6.67;4.93;;;21.40;99.90;;;;;;5084780;28;20828;-70
2021/04/29 11:08:50;;;;;;;6.30;4.87;;;21.70;99.90;;;;;;5087030;28;20437;-69
2021/04/29 11:11:25;;;;;;;6.27;5.50;;;21.70;99.90;;;;;;5087335;28;20522;-68
2021/04/29 11:14:03;;;;;;;6.00;5.40;;;21.60;99.90;;;;;;5083679;28;21050;-69
2021/04/29 11:16:43;;;;;;;5.57;4.60;;;22.00;99.90;;;;;;5090623;28;20431;-70
2021/04/29 11:19:09;;;;;;;5.20;4.40;;;22.10;99.90;;;;;;5091000;28;20425;-71
2021/04/29 11:21:34;;;;;;;6.73;5.27;;;22.60;99.90;;;;;;5090397;28;20429;-69
2021/04/29 11:24:00;;;;;;;7.00;4.60;;;22.10;99.90;;;;;;5091587;28;20611;-70
2021/04/29 11:26:33;;;;;;;5.80;4.83;;;21.50;99.90;;;;;;5092393;28;20213;-68
2021/04/29 11:28:59;;;;;;;6.07;4.40;;;22.00;99.90;;;;;;5090730;28;20567;-68
2021/04/29 11:31:25;;;;;;;5.93;5.10;;;21.70;99.90;;;;;;5091640;28;20461;-69
2021/04/29 11:33:52;;;;;;;4.50;4.10;;;22.10;99.90;;;;;;5091085;28;21005;-69
2021/04/29 11:36:18;;;;;;;5.00;4.00;;;22.10;99.90;;;;;;5086527;28;20260;-69
2021/04/29 11:38:56;;;;;;;4.80;3.70;;;22.00;99.90;;;;;;5081355;28;20528;-68
2021/04/29 11:41:23;;;;;;;6.97;4.03;;;22.20;99.90;;;;;;5091483;28;20188;-68
2021/04/29 11:44:00;;;;;;;3.90;2.67;;;22.50;99.90;;;;;;5085273;28;20457;-68
2021/04/29 11:46:26;;;;;;;2.57;2.37;;;22.30;99.90;;;;;;5088737;28;20437;-69
2021/04/29 11:48:57;;;;;;;3.43;3.13;;;22.70;99.90;;;;;;5089199;28;20496;-70
2021/04/29 11:51:24;;;;;;;3.50;2.90;;;22.50;99.90;;;;;;5086035;28;20462;-70
2021/04/29 11:53:50;;;;;;;3.40;2.93;;;22.40;99.90;;;;;;5091660;28;20453;-68
2021/04/29 11:56:16;;;;;;;4.00;2.80;;;22.20;99.90;;;;;;5086511;28;20431;-70
2021/04/29 11:58:42;;;;;;;4.40;2.77;;;22.00;99.90;;;;;;5084831;28;20497;-69
2021/04/29 12:01:15;;;;;;;3.80;3.30;;;21.90;99.90;;;;;;5080263;28;20190;-69
2021/04/29 12:03:42;;;;;;;3.97;3.57;;;22.00;99.90;;;;;;5085230;28;20205;-70
2021/04/29 12:06:08;;;;;;;4.43;3.70;;;21.90;99.90;;;;;;5090503;28;20461;-68
2021/04/29 12:08:37;;;;;;;3.93;3.00;;;22.10;99.90;;;;;;5084464;28;20492;-69
2021/04/29 12:11:09;;;;;;;4.20;3.80;;;22.20;99.90;;;;;;5090193;28;20268;-70
2021/04/29 12:13:37;;;;;;;5.60;3.90;;;22.00;99.90;;;;;;5091339;28;20964;-69
2021/04/29 12:16:08;;;;;;;7.37;5.40;;;22.40;99.90;;;;;;5087645;28;20896;-69
2021/04/29 12:18:39;;;;;;;3.53;2.80;;;22.60;99.90;;;;;;5082344;28;20499;-70
2021/04/29 12:21:05;;;;;;;5.37;3.67;;;22.60;99.90;;;;;;5083033;28;20430;-69
2021/04/29 12:23:32;;;;;;;3.57;3.10;;;22.30;99.90;;;;;;5078858;28;20452;-69
2021/04/29 12:26:04;;;;;;;3.07;2.80;;;22.20;99.90;;;;;;5078398;28;20420;-70
2021/04/29 12:28:35;;;;;;;3.67;2.90;;;22.10;99.90;;;;;;5086694;28;20458;-69
2021/04/29 12:31:18;;;;;;;2.70;2.50;;;22.10;99.90;;;;;;5085812;28;20431;-69
2021/04/29 12:33:54;;;;;;;5.00;3.73;;;22.20;99.90;;;;;;5089500;28;20551;-70
2021/04/29 12:36:21;;;;;;;5.07;3.43;;;21.90;99.90;;;;;;5091529;28;20918;-70
2021/04/29 12:38:46;;;;;;;3.90;3.10;;;22.10;99.90;;;;;;5083129;28;20694;-70